sensor_id;sensor_type;location;lat;lon;timestamp;pressure;altitude;pressure_sealevel;temperature;humidity
27304;BME280;14791;52.392;13.092;2023-09-18T00:00:14;100815.05;;;25.99;38.62
27304;BME280;14791;52.392;13.092;2023-09-18T00:02:43;100817.78;;;25.99;38.71
27304;BME280;14791;52.392;13.092;2023-09-18T00:05:12;100817.13;;;25.97;38.75
27304;BME280;14791;52.392;13.092;2023-09-18T00:07:43;100806.89;;;25.95;38.80
27304;BME280;14791;52.392;13.092;2023-09-18T00:10:12;100809.31;;;25.94;38.76
27304;BME280;14791;52.392;13.092;2023-09-18T00:12:41;100802.87;;;25.91;38.90
27304;BME280;14791;52.392;13.092;2023-09-18T00:15:10;100798.95;;;25.89;38.89
27304;BME280;14791;52.392;13.092;2023-09-18T00:17:39;100807.34;;;25.88;38.98
27304;BME280;14791;52.392;13.092;2023-09-18T00:20:08;100808.08;;;25.86;38.97
27304;BME280;14791;52.392;13.092;2023-09-18T00:22:37;100802.23;;;25.85;39.09
27304;BME280;14791;52.392;13.092;2023-09-18T00:25:06;100805.36;;;25.82;39.15
27304;BME280;14791;52.392;13.092;2023-09-18T00:27:35;100807.75;;;25.81;39.21
27304;BME280;14791;52.392;13.092;2023-09-18T00:30:05;100810.88;;;25.78;39.27
27304;BME280;14791;52.392;13.092;2023-09-18T00:32:34;100800.86;;;25.74;39.31
27304;BME280;14791;52.392;13.092;2023-09-18T00:35:03;100802.09;;;25.72;39.33
27304;BME280;14791;52.392;13.092;2023-09-18T00:37:32;100802.80;;;25.70;39.39
27304;BME280;14791;52.392;13.092;2023-09-18T00:40:01;100799.05;;;25.66;39.37
27304;BME280;14791;52.392;13.092;2023-09-18T00:42:31;100791.25;;;25.63;39.44
27304;BME280;14791;52.392;13.092;2023-09-18T00:45:00;100793.84;;;25.61;39.55
27304;BME280;14791;52.392;13.092;2023-09-18T00:47:29;100792.34;;;25.58;39.60
27304;BME280;14791;52.392;13.092;2023-09-18T00:49:58;100792.53;;;25.57;39.54
27304;BME280;14791;52.392;13.092;2023-09-18T00:52:28;100789.34;;;25.53;39.66
27304;BME280;14791;52.392;13.092;2023-09-18T00:54:57;100791.94;;;25.51;39.66
27304;BME280;14791;52.392;13.092;2023-09-18T00:57:28;100785.28;;;25.49;39.79
27304;BME280;14791;52.392;13.092;2023-09-18T00:59:57;100785.33;;;25.45;39.83
27304;BME280;14791;52.392;13.092;2023-09-18T01:02:26;100780.60;;;25.43;39.84
27304;BME280;14791;52.392;13.092;2023-09-18T01:04:56;100776.68;;;25.41;39.95
27304;BME280;14791;52.392;13.092;2023-09-18T01:07:25;100776.86;;;25.40;40.00
27304;BME280;14791;52.392;13.092;2023-09-18T01:09:54;100777.56;;;25.38;39.93
27304;BME280;14791;52.392;13.092;2023-09-18T01:12:44;100778.30;;;25.36;40.05
27304;BME280;14791;52.392;13.092;2023-09-18T01:15:17;100773.54;;;25.34;40.07
27304;BME280;14791;52.392;13.092;2023-09-18T01:17:45;100764.86;;;25.30;40.11
27304;BME280;14791;52.392;13.092;2023-09-18T01:20:14;100766.44;;;25.29;40.22
27304;BME280;14791;52.392;13.092;2023-09-18T01:22:43;100770.19;;;25.28;40.26
27304;BME280;14791;52.392;13.092;2023-09-18T01:25:12;100767.84;;;25.24;40.33
27304;BME280;14791;52.392;13.092;2023-09-18T01:27:41;100774.02;;;25.22;40.36
27304;BME280;14791;52.392;13.092;2023-09-18T01:30:11;100771.14;;;25.20;40.36
27304;BME280;14791;52.392;13.092;2023-09-18T01:32:41;100769.26;;;25.16;40.44
27304;BME280;14791;52.392;13.092;2023-09-18T01:35:12;100768.63;;;25.14;40.42
27304;BME280;14791;52.392;13.092;2023-09-18T01:37:44;100772.59;;;25.12;40.50
27304;BME280;14791;52.392;13.092;2023-09-18T01:40:13;100777.88;;;25.09;40.47
27304;BME280;14791;52.392;13.092;2023-09-18T01:42:43;100775.88;;;25.07;40.60
27304;BME280;14791;52.392;13.092;2023-09-18T01:45:13;100770.77;;;25.04;40.71
27304;BME280;14791;52.392;13.092;2023-09-18T01:47:42;100756.13;;;25.01;40.81
27304;BME280;14791;52.392;13.092;2023-09-18T01:50:11;100747.48;;;24.97;40.88
27304;BME280;14791;52.392;13.092;2023-09-18T01:52:41;100743.22;;;24.95;40.97
27304;BME280;14791;52.392;13.092;2023-09-18T01:55:10;100733.72;;;24.91;41.05
27304;BME280;14791;52.392;13.092;2023-09-18T01:57:39;100738.17;;;24.88;41.07
27304;BME280;14791;52.392;13.092;2023-09-18T02:00:10;100726.79;;;24.84;41.10
27304;BME280;14791;52.392;13.092;2023-09-18T02:02:42;100722.20;;;24.80;41.17
27304;BME280;14791;52.392;13.092;2023-09-18T02:05:11;100722.27;;;24.76;41.14
27304;BME280;14791;52.392;13.092;2023-09-18T02:07:40;100720.25;;;24.74;41.20
27304;BME280;14791;52.392;13.092;2023-09-18T02:10:09;100722.00;;;24.71;41.34
27304;BME280;14791;52.392;13.092;2023-09-18T02:12:40;100716.71;;;24.70;41.42
27304;BME280;14791;52.392;13.092;2023-09-18T02:15:09;100709.74;;;24.67;41.50
27304;BME280;14791;52.392;13.092;2023-09-18T02:17:38;100710.44;;;24.65;41.54
27304;BME280;14791;52.392;13.092;2023-09-18T02:20:08;100706.38;;;24.61;41.53
27304;BME280;14791;52.392;13.092;2023-09-18T02:22:39;100709.18;;;24.57;41.55
27304;BME280;14791;52.392;13.092;2023-09-18T02:25:08;100707.46;;;24.56;41.68
27304;BME280;14791;52.392;13.092;2023-09-18T02:27:37;100703.23;;;24.53;41.75
27304;BME280;14791;52.392;13.092;2023-09-18T02:30:07;100694.23;;;24.49;41.80
27304;BME280;14791;52.392;13.092;2023-09-18T02:32:37;100696.30;;;24.47;41.92
27304;BME280;14791;52.392;13.092;2023-09-18T02:35:06;100691.19;;;24.44;41.99
27304;BME280;14791;52.392;13.092;2023-09-18T02:37:36;100690.52;;;24.41;42.03
27304;BME280;14791;52.392;13.092;2023-09-18T02:40:05;100691.73;;;24.39;42.10
27304;BME280;14791;52.392;13.092;2023-09-18T02:42:35;100686.14;;;24.36;42.11
27304;BME280;14791;52.392;13.092;2023-09-18T02:45:04;100681.06;;;24.33;42.12
27304;BME280;14791;52.392;13.092;2023-09-18T02:47:33;100680.71;;;24.32;42.21
27304;BME280;14791;52.392;13.092;2023-09-18T02:50:05;100675.63;;;24.29;42.20
27304;BME280;14791;52.392;13.092;2023-09-18T02:52:34;100672.45;;;24.26;42.28
27304;BME280;14791;52.392;13.092;2023-09-18T02:55:03;100662.75;;;24.23;42.35
27304;BME280;14791;52.392;13.092;2023-09-18T02:57:33;100664.81;;;24.21;42.37
27304;BME280;14791;52.392;13.092;2023-09-18T03:00:03;100662.43;;;24.18;42.45
27304;BME280;14791;52.392;13.092;2023-09-18T03:02:32;100657.19;;;24.16;42.53
27304;BME280;14791;52.392;13.092;2023-09-18T03:05:01;100656.16;;;24.13;42.63
27304;BME280;14791;52.392;13.092;2023-09-18T03:07:30;100647.83;;;24.11;42.66
27304;BME280;14791;52.392;13.092;2023-09-18T03:09:59;100654.34;;;24.10;42.62
27304;BME280;14791;52.392;13.092;2023-09-18T03:12:28;100643.80;;;24.07;42.72
27304;BME280;14791;52.392;13.092;2023-09-18T03:14:57;100648.39;;;24.06;42.79
27304;BME280;14791;52.392;13.092;2023-09-18T03:17:26;100648.77;;;24.03;42.86
27304;BME280;14791;52.392;13.092;2023-09-18T03:19:55;100646.73;;;24.01;42.84
27304;BME280;14791;52.392;13.092;2023-09-18T03:22:25;100649.67;;;23.99;42.89
27304;BME280;14791;52.392;13.092;2023-09-18T03:24:54;100639.31;;;23.95;42.97
27304;BME280;14791;52.392;13.092;2023-09-18T03:27:23;100638.64;;;23.93;43.04
27304;BME280;14791;52.392;13.092;2023-09-18T03:29:54;100644.79;;;23.91;43.12
27304;BME280;14791;52.392;13.092;2023-09-18T03:32:23;100644.64;;;23.88;43.12
27304;BME280;14791;52.392;13.092;2023-09-18T03:34:53;100640.73;;;23.87;43.09
27304;BME280;14791;52.392;13.092;2023-09-18T03:37:22;100647.23;;;23.86;43.18
27304;BME280;14791;52.392;13.092;2023-09-18T03:39:51;100641.63;;;23.83;43.25
27304;BME280;14791;52.392;13.092;2023-09-18T03:42:20;100639.59;;;23.81;43.24
27304;BME280;14791;52.392;13.092;2023-09-18T03:44:49;100641.13;;;23.80;43.20
27304;BME280;14791;52.392;13.092;2023-09-18T03:47:18;100637.24;;;23.78;43.29
27304;BME280;14791;52.392;13.092;2023-09-18T03:49:47;100639.30;;;23.76;43.34
27304;BME280;14791;52.392;13.092;2023-09-18T03:52:16;100635.91;;;23.74;43.45
27304;BME280;14791;52.392;13.092;2023-09-18T03:54:45;100628.06;;;23.71;43.46
27304;BME280;14791;52.392;13.092;2023-09-18T03:57:14;100630.13;;;23.69;43.51
27304;BME280;14791;52.392;13.092;2023-09-18T03:59:43;100624.31;;;23.68;43.59
27304;BME280;14791;52.392;13.092;2023-09-18T04:02:12;100618.23;;;23.66;43.68
27304;BME280;14791;52.392;13.092;2023-09-18T04:04:40;100616.69;;;23.63;43.73
27304;BME280;14791;52.392;13.092;2023-09-18T04:07:09;100611.61;;;23.60;43.75
27304;BME280;14791;52.392;13.092;2023-09-18T04:09:39;100603.28;;;23.57;43.82
27304;BME280;14791;52.392;13.092;2023-09-18T04:12:08;100604.50;;;23.55;43.89
27304;BME280;14791;52.392;13.092;2023-09-18T04:14:37;100598.90;;;23.52;43.96
27304;BME280;14791;52.392;13.092;2023-09-18T04:17:07;100599.59;;;23.50;43.94
27304;BME280;14791;52.392;13.092;2023-09-18T04:19:35;100598.44;;;23.49;44.08
27304;BME280;14791;52.392;13.092;2023-09-18T04:22:04;100602.02;;;23.45;44.14
27304;BME280;14791;52.392;13.092;2023-09-18T04:24:33;100598.62;;;23.43;44.20
27304;BME280;14791;52.392;13.092;2023-09-18T04:27:02;100596.27;;;23.40;44.24
27304;BME280;14791;52.392;13.092;2023-09-18T04:29:32;100593.72;;;23.39;44.32
27304;BME280;14791;52.392;13.092;2023-09-18T04:32:01;100589.48;;;23.36;44.27
27304;BME280;14791;52.392;13.092;2023-09-18T04:34:32;100592.20;;;23.36;44.40
27304;BME280;14791;52.392;13.092;2023-09-18T04:37:02;100586.09;;;23.34;44.44
27304;BME280;14791;52.392;13.092;2023-09-18T04:39:31;100588.49;;;23.33;44.50
27304;BME280;14791;52.392;13.092;2023-09-18T04:42:02;100581.33;;;23.32;44.48
27304;BME280;14791;52.392;13.092;2023-09-18T04:44:34;100582.37;;;23.31;44.59
27304;BME280;14791;52.392;13.092;2023-09-18T04:47:04;100576.25;;;23.29;44.64
27304;BME280;14791;52.392;13.092;2023-09-18T04:49:33;100580.70;;;23.26;44.61
27304;BME280;14791;52.392;13.092;2023-09-18T04:52:03;100579.52;;;23.24;44.74
27304;BME280;14791;52.392;13.092;2023-09-18T04:54:32;100578.35;;;23.23;44.79
27304;BME280;14791;52.392;13.092;2023-09-18T04:57:01;100571.71;;;23.21;44.89
27304;BME280;14791;52.392;13.092;2023-09-18T04:59:31;100576.84;;;23.20;44.89
27304;BME280;14791;52.392;13.092;2023-09-18T05:02:00;100570.52;;;23.20;44.92
27304;BME280;14791;52.392;13.092;2023-09-18T05:04:30;100568.84;;;23.19;45.02
27304;BME280;14791;52.392;13.092;2023-09-18T05:06:59;100562.34;;;23.20;45.06
27304;BME280;14791;52.392;13.092;2023-09-18T05:09:29;100555.53;;;23.20;45.11
27304;BME280;14791;52.392;13.092;2023-09-18T05:11:58;100568.98;;;23.21;45.04
27304;BME280;14791;52.392;13.092;2023-09-18T05:14:27;100563.22;;;23.20;45.09
27304;BME280;14791;52.392;13.092;2023-09-18T05:16:56;100563.22;;;23.20;45.05
27304;BME280;14791;52.392;13.092;2023-09-18T05:19:25;100560.30;;;23.22;45.19
27304;BME280;14791;52.392;13.092;2023-09-18T05:21:54;100555.69;;;23.22;45.27
27304;BME280;14791;52.392;13.092;2023-09-18T05:24:23;100566.73;;;23.25;45.31
27304;BME280;14791;52.392;13.092;2023-09-18T05:26:54;100556.19;;;23.26;45.30
27304;BME280;14791;52.392;13.092;2023-09-18T05:29:23;100561.27;;;23.29;45.36
27304;BME280;14791;52.392;13.092;2023-09-18T05:31:52;100555.44;;;23.32;45.39
27304;BME280;14791;52.392;13.092;2023-09-18T05:34:21;100550.66;;;23.34;45.31
27304;BME280;14791;52.392;13.092;2023-09-18T05:36:50;100550.31;;;23.37;45.29
27304;BME280;14791;52.392;13.092;2023-09-18T05:39:19;100540.93;;;23.40;45.34
27304;BME280;14791;52.392;13.092;2023-09-18T05:41:48;100540.38;;;23.44;45.40
27304;BME280;14791;52.392;13.092;2023-09-18T05:44:17;100536.44;;;23.47;45.41
27304;BME280;14791;52.392;13.092;2023-09-18T05:46:46;100524.32;;;23.49;45.48
27304;BME280;14791;52.392;13.092;2023-09-18T05:49:15;100525.63;;;23.53;45.46
27304;BME280;14791;52.392;13.092;2023-09-18T05:51:44;100521.50;;;23.57;45.50
27304;BME280;14791;52.392;13.092;2023-09-18T05:54:15;100522.00;;;23.61;45.43
27304;BME280;14791;52.392;13.092;2023-09-18T05:56:44;100519.21;;;23.65;45.49
27304;BME280;14791;52.392;13.092;2023-09-18T05:59:13;100519.70;;;23.69;45.48
27304;BME280;14791;52.392;13.092;2023-09-18T06:01:44;100516.07;;;23.72;45.49
27304;BME280;14791;52.392;13.092;2023-09-18T06:04:12;100511.45;;;23.77;45.48
27304;BME280;14791;52.392;13.092;2023-09-18T06:06:41;100506.50;;;23.81;45.45
27304;BME280;14791;52.392;13.092;2023-09-18T06:09:11;100508.66;;;23.85;45.47
27304;BME280;14791;52.392;13.092;2023-09-18T06:11:40;100505.88;;;23.89;45.44
27304;BME280;14791;52.392;13.092;2023-09-18T06:14:10;100507.20;;;23.93;45.44
27304;BME280;14791;52.392;13.092;2023-09-18T06:16:39;100499.30;;;23.98;45.45
27304;BME280;14791;52.392;13.092;2023-09-18T06:19:08;100496.84;;;24.04;45.50
27304;BME280;14791;52.392;13.092;2023-09-18T06:21:37;100488.97;;;24.09;45.45
27304;BME280;14791;52.392;13.092;2023-09-18T06:24:06;100483.78;;;24.14;45.41
27304;BME280;14791;52.392;13.092;2023-09-18T06:26:35;100483.53;;;24.19;45.38
27304;BME280;14791;52.392;13.092;2023-09-18T06:29:05;100481.92;;;24.25;45.24
27304;BME280;14791;52.392;13.092;2023-09-18T06:31:33;100483.23;;;24.29;45.29
27304;BME280;14791;52.392;13.092;2023-09-18T06:34:02;100480.78;;;24.34;45.20
27304;BME280;14791;52.392;13.092;2023-09-18T06:36:31;100478.32;;;24.39;45.12
27304;BME280;14791;52.392;13.092;2023-09-18T06:39:00;100470.08;;;24.44;45.17
27304;BME280;14791;52.392;13.092;2023-09-18T06:41:30;100469.36;;;24.50;45.10
27304;BME280;14791;52.392;13.092;2023-09-18T06:43:58;100461.44;;;24.55;45.06
27304;BME280;14791;52.392;13.092;2023-09-18T06:46:30;100459.28;;;24.61;44.82
27304;BME280;14791;52.392;13.092;2023-09-18T06:48:58;100460.20;;;24.68;44.79
27304;BME280;14791;52.392;13.092;2023-09-18T06:51:28;100451.77;;;24.74;44.83
27304;BME280;14791;52.392;13.092;2023-09-18T06:53:58;100447.41;;;24.79;44.56
27304;BME280;14791;52.392;13.092;2023-09-18T06:56:27;100442.55;;;24.86;44.75
27304;BME280;14791;52.392;13.092;2023-09-18T06:58:56;100438.36;;;24.90;44.68
27304;BME280;14791;52.392;13.092;2023-09-18T07:01:25;100430.23;;;24.96;44.67
27304;BME280;14791;52.392;13.092;2023-09-18T07:03:55;100432.69;;;25.02;44.47
27304;BME280;14791;52.392;13.092;2023-09-18T07:06:24;100435.70;;;25.07;44.27
27304;BME280;14791;52.392;13.092;2023-09-18T07:08:53;100426.70;;;25.13;44.06
27304;BME280;14791;52.392;13.092;2023-09-18T07:11:23;100429.00;;;25.20;44.10
27304;BME280;14791;52.392;13.092;2023-09-18T07:13:51;100423.78;;;25.25;44.26
27304;BME280;14791;52.392;13.092;2023-09-18T07:16:20;100423.65;;;25.34;44.26
27304;BME280;14791;52.392;13.092;2023-09-18T07:18:49;100420.75;;;25.42;44.25
27304;BME280;14791;52.392;13.092;2023-09-18T07:21:18;100416.70;;;25.49;44.18
27304;BME280;14791;52.392;13.092;2023-09-18T07:23:47;100418.12;;;25.55;43.92
27304;BME280;14791;52.392;13.092;2023-09-18T07:26:16;100420.16;;;25.64;43.92
27304;BME280;14791;52.392;13.092;2023-09-18T07:28:45;100413.70;;;25.72;43.67
27304;BME280;14791;52.392;13.092;2023-09-18T07:31:14;100407.22;;;25.79;43.50
27304;BME280;14791;52.392;13.092;2023-09-18T07:33:43;100410.87;;;25.86;43.56
27304;BME280;14791;52.392;13.092;2023-09-18T07:36:12;100406.80;;;25.93;43.38
27304;BME280;14791;52.392;13.092;2023-09-18T07:38:42;100409.05;;;26.00;43.15
27304;BME280;14791;52.392;13.092;2023-09-18T07:41:11;100414.52;;;26.07;43.35
27304;BME280;14791;52.392;13.092;2023-09-18T07:43:42;100410.45;;;26.14;43.06
27304;BME280;14791;52.392;13.092;2023-09-18T07:46:11;100415.12;;;26.20;43.14
27304;BME280;14791;52.392;13.092;2023-09-18T07:48:40;100406.07;;;26.26;43.18
27304;BME280;14791;52.392;13.092;2023-09-18T07:51:14;100410.73;;;26.32;43.01
27304;BME280;14791;52.392;13.092;2023-09-18T07:53:45;100402.02;;;26.39;43.04
27304;BME280;14791;52.392;13.092;2023-09-18T07:56:14;100398.44;;;26.45;43.08
27304;BME280;14791;52.392;13.092;2023-09-18T07:58:43;100393.31;;;26.53;43.03
27304;BME280;14791;52.392;13.092;2023-09-18T08:01:12;100393.44;;;26.62;42.93
27304;BME280;14791;52.392;13.092;2023-09-18T08:03:41;100389.99;;;26.71;42.51
27304;BME280;14791;52.392;13.092;2023-09-18T08:06:10;100394.22;;;26.80;42.72
27304;BME280;14791;52.392;13.092;2023-09-18T08:08:39;100380.64;;;26.89;42.28
27304;BME280;14791;52.392;13.092;2023-09-18T08:11:08;100379.37;;;26.99;42.50
27304;BME280;14791;52.392;13.092;2023-09-18T08:13:37;100375.98;;;27.10;42.52
27304;BME280;14791;52.392;13.092;2023-09-18T08:16:07;100380.56;;;27.20;42.46
27304;BME280;14791;52.392;13.092;2023-09-18T08:18:36;100385.70;;;27.32;42.34
27304;BME280;14791;52.392;13.092;2023-09-18T08:21:07;100384.83;;;27.45;42.07
27304;BME280;14791;52.392;13.092;2023-09-18T08:23:36;100384.48;;;27.57;41.80
27304;BME280;14791;52.392;13.092;2023-09-18T08:26:05;100388.24;;;27.70;41.83
27304;BME280;14791;52.392;13.092;2023-09-18T08:28:35;100384.66;;;27.83;41.84
27304;BME280;14791;52.392;13.092;2023-09-18T08:31:05;100384.06;;;27.96;41.64
27304;BME280;14791;52.392;13.092;2023-09-18T08:33:34;100379.06;;;28.09;41.44
27304;BME280;14791;52.392;13.092;2023-09-18T08:36:04;100372.45;;;28.24;41.25
27304;BME280;14791;52.392;13.092;2023-09-18T08:38:33;100367.61;;;28.35;40.93
27304;BME280;14791;52.392;13.092;2023-09-18T08:41:02;100361.98;;;28.46;40.75
27304;BME280;14791;52.392;13.092;2023-09-18T08:43:32;100364.88;;;28.57;40.59
27304;BME280;14791;52.392;13.092;2023-09-18T08:46:02;100360.05;;;28.69;40.60
27304;BME280;14791;52.392;13.092;2023-09-18T08:48:32;100347.80;;;28.80;40.58
27304;BME280;14791;52.392;13.092;2023-09-18T08:51:05;100345.46;;;28.93;40.42
27304;BME280;14791;52.392;13.092;2023-09-18T08:53:35;100340.36;;;29.06;40.22
27304;BME280;14791;52.392;13.092;2023-09-18T08:56:05;100338.58;;;29.18;40.04
27304;BME280;14791;52.392;13.092;2023-09-18T08:58:36;100339.00;;;29.31;39.80
27304;BME280;14791;52.392;13.092;2023-09-18T09:01:07;100348.17;;;29.43;39.69
27304;BME280;14791;52.392;13.092;2023-09-18T09:03:38;100331.20;;;29.56;39.55
27304;BME280;14791;52.392;13.092;2023-09-18T09:06:07;100343.16;;;29.68;39.44
27304;BME280;14791;52.392;13.092;2023-09-18T09:08:37;100343.77;;;29.79;39.28
27304;BME280;14791;52.392;13.092;2023-09-18T09:11:06;100343.30;;;29.92;39.13
27304;BME280;14791;52.392;13.092;2023-09-18T09:13:35;100351.83;;;30.02;39.02
27304;BME280;14791;52.392;13.092;2023-09-18T09:16:04;100351.59;;;30.13;38.89
27304;BME280;14791;52.392;13.092;2023-09-18T09:18:33;100350.27;;;30.24;38.87
27304;BME280;14791;52.392;13.092;2023-09-18T09:21:03;100350.57;;;30.35;38.79
27304;BME280;14791;52.392;13.092;2023-09-18T09:23:46;100345.58;;;30.43;38.75
27304;BME280;14791;52.392;13.092;2023-09-18T09:26:22;100343.91;;;30.54;38.68
27304;BME280;14791;52.392;13.092;2023-09-18T09:28:52;100344.17;;;30.64;38.53
27304;BME280;14791;52.392;13.092;2023-09-18T09:31:28;100337.56;;;30.74;38.40
27304;BME280;14791;52.392;13.092;2023-09-18T09:33:58;100335.37;;;30.86;38.37
27304;BME280;14791;52.392;13.092;2023-09-18T09:36:29;100318.55;;;30.97;38.29
27304;BME280;14791;52.392;13.092;2023-09-18T09:38:59;100316.56;;;31.06;38.07
27304;BME280;14791;52.392;13.092;2023-09-18T09:41:29;100308.84;;;31.18;37.91
27304;BME280;14791;52.392;13.092;2023-09-18T09:44:00;100301.84;;;31.27;37.53
27304;BME280;14791;52.392;13.092;2023-09-18T09:46:29;100297.64;;;31.36;37.36
27304;BME280;14791;52.392;13.092;2023-09-18T09:49:03;100286.79;;;31.44;37.19
27304;BME280;14791;52.392;13.092;2023-09-18T09:51:33;100290.57;;;31.52;37.08
27304;BME280;14791;52.392;13.092;2023-09-18T09:54:05;100278.85;;;31.59;36.92
27304;BME280;14791;52.392;13.092;2023-09-18T09:56:48;100272.38;;;31.68;36.75
27304;BME280;14791;52.392;13.092;2023-09-18T09:59:19;100274.17;;;31.74;36.67
27304;BME280;14791;52.392;13.092;2023-09-18T10:01:48;100282.00;;;31.79;36.50
27304;BME280;14791;52.392;13.092;2023-09-18T10:04:19;100282.97;;;31.85;36.47
27304;BME280;14791;52.392;13.092;2023-09-18T10:07:03;100282.23;;;31.90;36.37
27304;BME280;14791;52.392;13.092;2023-09-18T10:09:26;100290.09;;;31.95;36.35
27304;BME280;14791;52.392;13.092;2023-09-18T10:11:57;100290.50;;;32.02;36.28
27304;BME280;14791;52.392;13.092;2023-09-18T10:14:32;100291.97;;;32.07;36.27
27304;BME280;14791;52.392;13.092;2023-09-18T10:17:15;100298.14;;;32.11;36.21
27304;BME280;14791;52.392;13.092;2023-09-18T10:19:45;100308.44;;;32.16;36.21
27304;BME280;14791;52.392;13.092;2023-09-18T10:22:37;100305.73;;;32.18;36.08
27304;BME280;14791;52.392;13.092;2023-09-18T10:27:42;100314.34;;;32.22;36.04
27304;BME280;14791;52.392;13.092;2023-09-18T10:30:12;100319.86;;;32.22;36.00
27304;BME280;14791;52.392;13.092;2023-09-18T10:32:42;100317.94;;;32.23;35.98
27304;BME280;14791;52.392;13.092;2023-09-18T10:35:14;100321.56;;;32.23;35.97
27304;BME280;14791;52.392;13.092;2023-09-18T10:37:43;100309.69;;;32.25;36.09
27304;BME280;14791;52.392;13.092;2023-09-18T10:40:14;100307.84;;;32.28;36.16
27304;BME280;14791;52.392;13.092;2023-09-18T10:42:46;100302.08;;;32.32;36.13
27304;BME280;14791;52.392;13.092;2023-09-18T10:45:16;100289.77;;;32.37;36.15
27304;BME280;14791;52.392;13.092;2023-09-18T10:47:46;100282.15;;;32.45;36.13
27304;BME280;14791;52.392;13.092;2023-09-18T10:50:24;100302.20;;;32.52;35.96
27304;BME280;14791;52.392;13.092;2023-09-18T10:52:53;100296.76;;;32.57;35.81
27304;BME280;14791;52.392;13.092;2023-09-18T10:55:23;100303.44;;;32.61;35.68
27304;BME280;14791;52.392;13.092;2023-09-18T10:57:55;100307.89;;;32.62;35.63
27304;BME280;14791;52.392;13.092;2023-09-18T11:00:26;100310.66;;;32.62;35.70
27304;BME280;14791;52.392;13.092;2023-09-18T11:03:15;100308.97;;;32.61;35.60
27304;BME280;14791;52.392;13.092;2023-09-18T11:05:48;100315.05;;;32.60;35.69
27304;BME280;14791;52.392;13.092;2023-09-18T11:08:32;100318.13;;;32.61;35.72
27304;BME280;14791;52.392;13.092;2023-09-18T11:11:09;100314.02;;;32.64;35.42
27304;BME280;14791;52.392;13.092;2023-09-18T11:13:51;100314.61;;;32.66;34.93
27304;BME280;14791;52.392;13.092;2023-09-18T11:21:34;100310.98;;;32.66;34.50
27304;BME280;14791;52.392;13.092;2023-09-18T11:24:05;100304.03;;;32.63;34.24
27304;BME280;14791;52.392;13.092;2023-09-18T11:26:37;100305.64;;;32.59;34.05
27304;BME280;14791;52.392;13.092;2023-09-18T11:29:12;100305.80;;;32.52;33.92
27304;BME280;14791;52.392;13.092;2023-09-18T11:31:52;100306.71;;;32.43;33.85
27304;BME280;14791;52.392;13.092;2023-09-18T11:34:27;100309.89;;;32.35;34.17
27304;BME280;14791;52.392;13.092;2023-09-18T11:37:22;100304.48;;;32.26;34.05
27304;BME280;14791;52.392;13.092;2023-09-18T11:39:52;100304.03;;;32.17;34.23
27304;BME280;14791;52.392;13.092;2023-09-18T11:42:23;100310.80;;;32.10;34.18
27304;BME280;14791;52.392;13.092;2023-09-18T11:44:55;100296.58;;;32.04;34.24
27304;BME280;14791;52.392;13.092;2023-09-18T11:47:26;100285.45;;;31.98;34.29
27304;BME280;14791;52.392;13.092;2023-09-18T11:49:59;100287.33;;;31.95;34.40
27304;BME280;14791;52.392;13.092;2023-09-18T11:52:30;100296.36;;;31.93;34.43
27304;BME280;14791;52.392;13.092;2023-09-18T11:55:00;100296.91;;;31.93;34.44
27304;BME280;14791;52.392;13.092;2023-09-18T11:57:35;100303.89;;;31.95;34.42
27304;BME280;14791;52.392;13.092;2023-09-18T12:00:05;100303.39;;;31.98;34.63
27304;BME280;14791;52.392;13.092;2023-09-18T12:02:36;100301.27;;;32.03;34.52
27304;BME280;14791;52.392;13.092;2023-09-18T12:05:11;100287.27;;;32.07;34.40
27304;BME280;14791;52.392;13.092;2023-09-18T12:07:44;100292.66;;;32.14;34.40
27304;BME280;14791;52.392;13.092;2023-09-18T12:10:15;100283.95;;;32.22;34.37
27304;BME280;14791;52.392;13.092;2023-09-18T12:12:46;100278.59;;;32.32;34.27
27304;BME280;14791;52.392;13.092;2023-09-18T12:15:17;100276.82;;;32.40;34.15
27304;BME280;14791;52.392;13.092;2023-09-18T12:17:48;100273.04;;;32.47;33.99
27304;BME280;14791;52.392;13.092;2023-09-18T12:20:17;100270.70;;;32.53;34.02
27304;BME280;14791;52.392;13.092;2023-09-18T12:22:50;100278.80;;;32.57;33.93
27304;BME280;14791;52.392;13.092;2023-09-18T12:25:19;100274.09;;;32.57;33.82
27304;BME280;14791;52.392;13.092;2023-09-18T12:27:54;100281.24;;;32.56;33.71
27304;BME280;14791;52.392;13.092;2023-09-18T12:30:23;100283.93;;;32.51;33.70
27304;BME280;14791;52.392;13.092;2023-09-18T12:32:53;100275.48;;;32.43;33.71
27304;BME280;14791;52.392;13.092;2023-09-18T12:35:24;100255.22;;;32.37;33.96
27304;BME280;14791;52.392;13.092;2023-09-18T12:38:01;100262.29;;;32.31;33.81
27304;BME280;14791;52.392;13.092;2023-09-18T12:40:30;100272.70;;;32.26;33.91
27304;BME280;14791;52.392;13.092;2023-09-18T12:43:03;100279.77;;;32.19;33.90
27304;BME280;14791;52.392;13.092;2023-09-18T12:45:34;100276.55;;;32.11;33.96
27304;BME280;14791;52.392;13.092;2023-09-18T12:48:05;100283.33;;;32.03;34.11
27304;BME280;14791;52.392;13.092;2023-09-18T12:50:34;100296.36;;;31.93;34.23
27304;BME280;14791;52.392;13.092;2023-09-18T12:53:13;100302.84;;;31.85;34.29
27304;BME280;14791;52.392;13.092;2023-09-18T12:55:43;100295.48;;;31.76;34.57
27304;BME280;14791;52.392;13.092;2023-09-18T12:58:12;100287.52;;;31.65;34.96
27304;BME280;14791;52.392;13.092;2023-09-18T13:00:48;100290.44;;;31.58;35.07
27304;BME280;14791;52.392;13.092;2023-09-18T13:03:17;100281.98;;;31.51;35.12